Draper, Virginia
Current Conditions -  °F | °C
As of 11:55 PM on Saturday 25 Oct 2014 (Local Time) from KPSK Reporting Station
Clear Clear  
Wind Chill: 61°   Ceiling: Unl
Heat Index: 61°   Visibility: 10mi
Dew Point: 52°   Wind: 13mph
Humidity: 72%   Direction: 260°W
Pressure: 29.92"   Gusts: NA
Location:  37.01°N, 80.75°W
Report Text: KPSK 260355Z AUTO 26011KT 10SM CLR 16/11 A2992 RMK AO2
Loading
Personal Weather Stations






























Interactive Weather Map
Tropical Storm Tracking
New forecast layout! Learn more

10-Day Weather Forecast

Advertisements
Track Severe Weather on mobile